createdAt,value
2023-06-29T00:00:35.461Z,2.30
2023-06-29T00:03:05.768Z,2.40
2023-06-29T00:05:33.933Z,2.30
2023-06-29T00:08:01.598Z,2.80
2023-06-29T00:10:30.039Z,2.07
2023-06-29T00:12:58.222Z,2.33
2023-06-29T00:15:25.848Z,2.70
2023-06-29T00:17:55.283Z,2.43
2023-06-29T00:20:29.422Z,2.50
2023-06-29T00:22:58.135Z,2.43
2023-06-29T00:25:25.786Z,2.53
2023-06-29T00:27:53.628Z,2.63
2023-06-29T00:30:21.637Z,2.37
2023-06-29T00:32:49.278Z,3.03
2023-06-29T00:35:17.078Z,3.33
2023-06-29T00:37:46.138Z,2.67
2023-06-29T00:40:14.631Z,2.60
2023-06-29T00:42:43.185Z,2.77
2023-06-29T00:45:11.632Z,2.60
2023-06-29T00:47:39.331Z,2.70
2023-06-29T00:50:08.151Z,2.40
2023-06-29T00:52:36.273Z,2.73
2023-06-29T00:55:05.926Z,2.33
2023-06-29T00:57:33.577Z,2.43
2023-06-29T01:00:02.028Z,2.57
2023-06-29T01:02:31.134Z,2.00
2023-06-29T01:04:59.389Z,2.27
2023-06-29T01:07:31.629Z,2.37
2023-06-29T01:10:00.810Z,2.07
2023-06-29T01:12:30.079Z,2.43
2023-06-29T01:14:58.302Z,2.43
2023-06-29T01:17:28.412Z,2.80
2023-06-29T01:19:56.775Z,2.20
2023-06-29T01:22:29.845Z,2.53
2023-06-29T01:25:00.923Z,2.70
2023-06-29T01:27:28.924Z,2.80
2023-06-29T01:30:02.428Z,2.20
2023-06-29T01:32:35.189Z,2.90
2023-06-29T01:35:03.507Z,3.03
2023-06-29T01:37:37.648Z,2.53
2023-06-29T01:40:10.115Z,2.73
2023-06-29T01:42:38.424Z,2.80
2023-06-29T01:45:08.388Z,3.00
2023-06-29T01:47:36.538Z,2.80
2023-06-29T01:50:05.114Z,2.90
2023-06-29T01:52:32.837Z,2.90
2023-06-29T01:55:00.609Z,3.00
2023-06-29T01:57:29.789Z,2.60
2023-06-29T01:59:57.444Z,2.93
2023-06-29T02:02:25.221Z,2.93
2023-06-29T02:04:53.067Z,2.50
2023-06-29T02:07:20.807Z,2.77
2023-06-29T02:09:48.550Z,2.97
2023-06-29T02:12:17.140Z,3.07
2023-06-29T02:14:46.226Z,3.07
2023-06-29T02:17:13.944Z,3.03
2023-06-29T02:19:41.563Z,2.77
2023-06-29T02:22:09.200Z,2.40
2023-06-29T02:24:36.888Z,2.33
2023-06-29T02:27:04.997Z,2.50
2023-06-29T02:29:32.777Z,2.87
2023-06-29T02:32:01.821Z,3.30
2023-06-29T02:34:31.183Z,2.77
2023-06-29T02:36:58.923Z,2.97
2023-06-29T02:39:26.573Z,2.80
2023-06-29T02:41:54.206Z,2.40
2023-06-29T02:44:22.244Z,2.83
2023-06-29T02:46:49.892Z,2.30
2023-06-29T02:49:19.002Z,2.67
2023-06-29T02:51:46.720Z,2.77
2023-06-29T02:54:14.372Z,2.63
2023-06-29T02:56:42.086Z,2.90
2023-06-29T02:59:09.878Z,2.90
2023-06-29T03:01:37.526Z,2.93
2023-06-29T03:04:05.553Z,2.40
2023-06-29T03:06:34.617Z,2.70
2023-06-29T03:09:02.282Z,3.10
2023-06-29T03:11:30.004Z,3.00
2023-06-29T03:13:58.938Z,2.90
2023-06-29T03:16:26.671Z,2.80
2023-06-29T03:18:54.494Z,2.73
2023-06-29T03:21:22.123Z,2.83
2023-06-29T03:23:51.158Z,2.53
2023-06-29T03:26:18.986Z,3.00
2023-06-29T03:28:46.643Z,2.50
2023-06-29T03:31:15.171Z,2.63
2023-06-29T03:33:42.887Z,2.97
2023-06-29T03:36:12.507Z,2.50
2023-06-29T03:38:40.187Z,2.37
2023-06-29T03:41:09.387Z,2.67
2023-06-29T03:43:37.032Z,2.13
2023-06-29T03:46:04.672Z,2.27
2023-06-29T03:48:32.655Z,2.83
2023-06-29T03:51:00.444Z,2.60
2023-06-29T03:53:28.183Z,2.70
2023-06-29T03:55:55.848Z,2.47
2023-06-29T03:58:25.040Z,2.23
2023-06-29T04:00:53.044Z,2.30
2023-06-29T04:03:20.889Z,2.77
2023-06-29T04:05:48.816Z,2.30
2023-06-29T04:08:16.501Z,2.60
2023-06-29T04:10:44.320Z,2.70
2023-06-29T04:13:12.014Z,2.80
2023-06-29T04:15:41.392Z,2.30
2023-06-29T04:18:09.546Z,2.10
2023-06-29T04:20:38.949Z,2.37
2023-06-29T04:23:06.791Z,2.63
2023-06-29T04:25:34.853Z,2.40
2023-06-29T04:28:02.538Z,2.63
2023-06-29T04:30:30.230Z,2.60
2023-06-29T04:33:10.821Z,2.80
2023-06-29T04:35:40.546Z,2.43
2023-06-29T04:38:08.772Z,2.57
2023-06-29T04:40:36.533Z,2.80
2023-06-29T04:43:04.441Z,2.60
2023-06-29T04:45:34.209Z,2.77
2023-06-29T04:48:03.612Z,2.70
2023-06-29T04:50:36.747Z,2.43
2023-06-29T04:53:10.265Z,2.40
2023-06-29T04:55:38.873Z,2.30
2023-06-29T04:58:06.750Z,2.40
2023-06-29T05:00:34.446Z,2.10
2023-06-29T05:03:03.844Z,2.23
2023-06-29T05:05:31.627Z,2.40
2023-06-29T05:07:59.333Z,2.87
2023-06-29T05:10:27.868Z,2.97
2023-06-29T05:12:55.500Z,2.93
2023-06-29T05:15:23.198Z,2.50
2023-06-29T05:17:50.974Z,2.67
2023-06-29T05:20:20.339Z,2.63
2023-06-29T05:22:48.391Z,2.67
2023-06-29T05:25:16.452Z,2.70
2023-06-29T05:27:44.159Z,2.70
2023-06-29T05:30:13.404Z,2.37
2023-06-29T05:32:41.148Z,2.40
2023-06-29T05:35:09.365Z,2.23
2023-06-29T05:37:38.408Z,2.50
2023-06-29T05:40:07.781Z,2.70
2023-06-29T05:42:35.439Z,2.70
2023-06-29T05:45:04.248Z,2.60
2023-06-29T05:47:32.003Z,2.90
2023-06-29T05:49:59.732Z,2.93
2023-06-29T05:52:27.427Z,2.90
2023-06-29T05:54:56.476Z,2.63
2023-06-29T05:57:24.137Z,2.80
2023-06-29T05:59:52.416Z,2.83
2023-06-29T06:02:20.252Z,2.90
2023-06-29T06:04:47.936Z,2.93
2023-06-29T06:07:16.161Z,3.17
2023-06-29T06:09:43.951Z,3.20
2023-06-29T06:12:13.189Z,3.13
2023-06-29T06:14:40.856Z,3.03
2023-06-29T06:17:08.800Z,3.37
2023-06-29T06:19:36.470Z,3.50
2023-06-29T06:22:04.508Z,3.67
2023-06-29T06:24:32.313Z,4.00
2023-06-29T06:26:59.922Z,2.80
2023-06-29T06:29:29.005Z,2.90
2023-06-29T06:31:57.037Z,3.30
2023-06-29T06:34:24.729Z,3.00
2023-06-29T06:36:53.562Z,3.00
2023-06-29T06:39:21.539Z,3.10
2023-06-29T06:41:49.170Z,2.60
2023-06-29T06:44:16.900Z,3.30
2023-06-29T06:46:46.068Z,2.90
2023-06-29T06:49:14.460Z,2.87
2023-06-29T06:51:42.154Z,2.97
2023-06-29T06:54:09.820Z,3.03
2023-06-29T06:56:38.536Z,2.87
2023-06-29T06:59:08.135Z,3.23
2023-06-29T07:01:36.083Z,2.90
2023-06-29T07:04:05.452Z,2.50
2023-06-29T07:06:34.759Z,2.83
2023-06-29T07:09:02.420Z,2.70
2023-06-29T07:11:30.142Z,2.70
2023-06-29T07:13:57.803Z,2.57
2023-06-29T07:16:26.535Z,2.43
2023-06-29T07:21:36.850Z,2.37
2023-06-29T07:24:08.141Z,2.80
2023-06-29T07:26:36.524Z,2.30
2023-06-29T07:29:05.862Z,2.60
2023-06-29T07:31:33.876Z,2.47
2023-06-29T07:34:01.729Z,2.10
2023-06-29T07:36:31.293Z,2.50
2023-06-29T07:38:59.005Z,2.73
2023-06-29T07:41:27.328Z,2.37
2023-06-29T07:43:56.683Z,2.40
2023-06-29T07:46:24.755Z,2.17
2023-06-29T07:48:53.510Z,2.20
2023-06-29T07:51:21.476Z,2.10
2023-06-29T07:53:51.523Z,2.33
2023-06-29T07:56:19.877Z,2.10
2023-06-29T07:58:47.942Z,2.23
2023-06-29T08:01:15.691Z,2.43
2023-06-29T08:04:01.185Z,2.10
2023-06-29T08:09:03.052Z,2.00
2023-06-29T08:11:30.968Z,2.37
2023-06-29T08:13:58.850Z,2.20
2023-06-29T08:16:26.676Z,2.80
2023-06-29T08:18:54.499Z,2.57
2023-06-29T08:21:22.282Z,2.33
2023-06-29T08:23:51.672Z,2.20
2023-06-29T08:26:20.775Z,1.80
2023-06-29T08:28:48.385Z,2.30
2023-06-29T08:31:16.162Z,1.90
2023-06-29T08:33:44.824Z,2.67
2023-06-29T08:36:12.550Z,1.90
2023-06-29T08:38:40.162Z,2.07
2023-06-29T08:41:07.800Z,2.17
2023-06-29T08:43:36.802Z,2.30
2023-06-29T08:46:04.931Z,1.87
2023-06-29T08:48:33.719Z,2.20
2023-06-29T08:51:04.753Z,2.00
2023-06-29T08:53:32.657Z,1.80
2023-06-29T08:56:01.178Z,1.70
2023-06-29T08:58:28.773Z,2.08
2023-06-29T09:00:58.372Z,2.10
2023-06-29T09:03:26.544Z,1.92
2023-06-29T09:05:55.705Z,1.88
2023-06-29T09:08:24.760Z,1.58
2023-06-29T09:10:52.440Z,1.80
2023-06-29T09:13:20.581Z,2.00
2023-06-29T09:15:49.666Z,1.77
2023-06-29T09:18:23.967Z,1.60
2023-06-29T09:20:52.431Z,1.88
2023-06-29T09:23:20.082Z,2.10
2023-06-29T09:25:48.108Z,1.52
2023-06-29T09:28:16.119Z,1.70
2023-06-29T09:30:44.243Z,2.17
2023-06-29T09:33:13.052Z,1.60
2023-06-29T09:35:46.336Z,1.85
2023-06-29T09:38:15.212Z,1.83
2023-06-29T09:40:52.514Z,1.38
2023-06-29T09:43:22.202Z,1.98
2023-06-29T09:45:50.159Z,1.75
2023-06-29T09:50:53.530Z,1.90
2023-06-29T09:53:30.134Z,2.22
2023-06-29T09:55:59.514Z,1.83
2023-06-29T09:58:28.389Z,2.20
2023-06-29T10:00:59.228Z,2.03
2023-06-29T10:03:27.776Z,2.22
2023-06-29T10:06:12.772Z,2.33
2023-06-29T10:08:41.513Z,2.42
2023-06-29T10:11:09.398Z,2.33
2023-06-29T10:13:39.779Z,2.28
2023-06-29T10:16:09.586Z,2.20
2023-06-29T10:18:39.969Z,2.42
2023-06-29T10:21:09.131Z,2.47
2023-06-29T10:23:37.323Z,2.33
2023-06-29T10:26:06.977Z,2.20
2023-06-29T10:28:35.773Z,2.03
2023-06-29T10:31:03.612Z,2.78
2023-06-29T10:33:31.461Z,2.67
2023-06-29T10:35:59.992Z,2.30
2023-06-29T10:38:34.567Z,2.60
2023-06-29T10:41:02.612Z,2.50
2023-06-29T10:43:30.410Z,2.60
2023-06-29T10:45:58.086Z,2.92
2023-06-29T10:48:47.224Z,2.80
2023-06-29T10:51:14.966Z,2.65
2023-06-29T10:53:44.030Z,2.63
2023-06-29T10:56:30.235Z,2.55
2023-06-29T10:58:57.881Z,2.50
2023-06-29T11:01:25.906Z,3.00
2023-06-29T11:03:53.799Z,2.70
2023-06-29T11:09:14.189Z,2.50
2023-06-29T11:11:42.037Z,2.47
2023-06-29T11:14:12.511Z,2.88
2023-06-29T11:16:40.568Z,2.47
2023-06-29T11:19:11.026Z,2.92
2023-06-29T11:21:42.060Z,2.47
2023-06-29T11:24:10.732Z,2.40
2023-06-29T11:26:39.954Z,2.60
2023-06-29T11:29:08.825Z,2.75
2023-06-29T11:31:36.540Z,3.00
2023-06-29T11:34:04.312Z,2.40
2023-06-29T11:36:34.085Z,2.55
2023-06-29T11:39:06.052Z,2.45
2023-06-29T11:41:33.724Z,2.60
2023-06-29T11:44:03.168Z,2.78
2023-06-29T11:46:34.315Z,2.80
2023-06-29T11:49:02.379Z,2.85
2023-06-29T11:51:30.544Z,2.92
2023-06-29T11:54:01.493Z,3.10
2023-06-29T11:56:36.494Z,3.20
2023-06-29T11:59:08.134Z,3.00
2023-06-29T12:01:36.424Z,2.88
2023-06-29T12:04:05.952Z,3.10
2023-06-29T12:06:34.877Z,2.45
2023-06-29T12:09:02.707Z,2.85
2023-06-29T12:11:30.762Z,2.88
2023-06-29T12:13:58.419Z,2.65
2023-06-29T12:18:58.611Z,2.92
2023-06-29T12:21:26.705Z,2.88
2023-06-29T12:23:54.554Z,3.30
2023-06-29T12:26:24.209Z,3.78
2023-06-29T12:28:51.898Z,3.97
2023-06-29T12:31:27.919Z,3.72
2023-06-29T12:33:56.169Z,3.35
2023-06-29T12:36:24.086Z,4.18
2023-06-29T12:38:52.217Z,4.40
2023-06-29T12:41:20.071Z,4.45
2023-06-29T12:43:48.593Z,4.65
2023-06-29T12:46:16.398Z,5.25
2023-06-29T12:48:46.574Z,5.28
2023-06-29T12:51:14.244Z,4.97
2023-06-29T12:53:42.692Z,4.88
2023-06-29T12:56:10.377Z,5.20
2023-06-29T12:58:38.016Z,5.60
2023-06-29T13:01:05.782Z,5.72
2023-06-29T13:03:33.660Z,6.13
2023-06-29T13:06:02.979Z,5.55
2023-06-29T13:08:31.707Z,5.13
2023-06-29T13:11:00.372Z,5.70
2023-06-29T13:13:28.213Z,5.88
2023-06-29T13:15:55.921Z,6.20
2023-06-29T13:18:23.648Z,6.03
2023-06-29T13:20:51.417Z,6.15
2023-06-29T13:23:20.451Z,6.03
2023-06-29T13:25:48.099Z,6.43
2023-06-29T13:28:15.714Z,6.05
2023-06-29T13:30:43.427Z,6.38
2023-06-29T13:33:12.445Z,6.22
2023-06-29T13:35:40.143Z,6.22
2023-06-29T13:38:07.717Z,5.65
2023-06-29T13:40:36.683Z,5.65
2023-06-29T13:43:04.348Z,6.53
2023-06-29T13:45:32.028Z,5.93
2023-06-29T13:48:00.895Z,6.90
2023-06-29T13:50:40.233Z,6.07
2023-06-29T13:53:09.514Z,6.35
2023-06-29T13:55:38.819Z,5.47
2023-06-29T13:58:06.883Z,6.32
2023-06-29T14:00:34.556Z,6.30
2023-06-29T14:03:02.503Z,5.65
2023-06-29T14:05:30.737Z,5.57
2023-06-29T14:07:58.738Z,6.05
2023-06-29T14:10:26.879Z,6.05
2023-06-29T14:12:56.005Z,5.88
2023-06-29T14:15:24.314Z,6.13
2023-06-29T14:17:52.242Z,6.13
2023-06-29T14:20:20.126Z,5.53
2023-06-29T14:22:47.737Z,6.05
2023-06-29T14:25:15.432Z,6.50
2023-06-29T14:27:43.159Z,5.88
2023-06-29T14:30:13.703Z,5.45
2023-06-29T14:32:41.877Z,5.93
2023-06-29T14:35:09.849Z,5.20
2023-06-29T14:37:37.574Z,5.07
2023-06-29T14:40:07.926Z,6.10
2023-06-29T14:42:35.619Z,5.43
2023-06-29T14:45:04.578Z,5.28
2023-06-29T14:47:34.232Z,5.15
2023-06-29T14:50:01.907Z,4.88
2023-06-29T14:52:29.600Z,5.18
2023-06-29T14:54:57.267Z,5.38
2023-06-29T14:57:24.954Z,4.80
2023-06-29T14:59:55.328Z,5.07
2023-06-29T15:02:25.418Z,4.68
2023-06-29T15:04:54.533Z,5.10
2023-06-29T15:07:23.475Z,5.40
2023-06-29T15:09:51.338Z,5.10
2023-06-29T15:12:18.980Z,5.03
2023-06-29T15:14:46.729Z,5.70
2023-06-29T15:17:14.504Z,6.03
2023-06-29T15:19:42.179Z,5.50
2023-06-29T15:22:11.229Z,5.82
2023-06-29T15:24:39.260Z,5.82
2023-06-29T15:27:07.746Z,5.75
2023-06-29T15:29:35.486Z,5.90
2023-06-29T15:32:03.280Z,5.70
2023-06-29T15:34:30.992Z,5.30
2023-06-29T15:36:58.754Z,5.78
2023-06-29T15:39:28.273Z,5.45
2023-06-29T15:41:56.326Z,5.90
2023-06-29T15:44:24.111Z,5.78
2023-06-29T15:46:53.590Z,5.47
2023-06-29T15:49:21.625Z,5.95
2023-06-29T15:51:49.526Z,5.75
2023-06-29T15:54:18.115Z,6.20
2023-06-29T15:56:47.370Z,5.65
2023-06-29T15:59:15.143Z,5.32
2023-06-29T16:01:42.847Z,5.53
2023-06-29T16:04:10.624Z,6.13
2023-06-29T16:06:38.384Z,6.63
2023-06-29T16:09:06.000Z,6.25
2023-06-29T16:11:33.603Z,6.10
2023-06-29T16:14:02.631Z,6.10
2023-06-29T16:16:30.390Z,6.28
2023-06-29T16:18:58.263Z,6.70
2023-06-29T16:21:25.921Z,7.05
2023-06-29T16:23:53.524Z,6.18
2023-06-29T16:26:21.279Z,6.53
2023-06-29T16:28:48.939Z,5.50
2023-06-29T16:31:18.048Z,6.65
2023-06-29T16:33:45.895Z,6.45
2023-06-29T16:36:13.559Z,6.97
2023-06-29T16:38:41.281Z,5.80
2023-06-29T16:41:08.970Z,6.32
2023-06-29T16:43:36.586Z,6.28
2023-06-29T16:46:04.370Z,6.20
2023-06-29T16:48:33.486Z,5.90
2023-06-29T16:51:01.192Z,6.57
2023-06-29T16:53:28.904Z,6.18
2023-06-29T16:55:57.340Z,6.50
2023-06-29T16:58:27.440Z,6.90
2023-06-29T17:00:55.118Z,6.72
2023-06-29T17:03:23.303Z,6.07
2023-06-29T17:05:52.493Z,6.10
2023-06-29T17:08:20.078Z,6.70
2023-06-29T17:10:47.744Z,6.20
2023-06-29T17:13:15.519Z,6.53
2023-06-29T17:15:43.379Z,5.95
2023-06-29T17:18:11.183Z,6.85
2023-06-29T17:20:38.976Z,6.10
2023-06-29T17:23:08.159Z,6.60
2023-06-29T17:25:35.823Z,6.28
2023-06-29T17:28:03.431Z,6.35
2023-06-29T17:30:31.004Z,6.43
2023-06-29T17:32:58.757Z,5.78
2023-06-29T17:35:26.641Z,6.18
2023-06-29T17:37:54.240Z,6.70
2023-06-29T17:40:23.223Z,6.32
2023-06-29T17:42:50.936Z,6.30
2023-06-29T17:45:18.915Z,6.80
2023-06-29T17:47:46.607Z,6.40
2023-06-29T17:50:14.792Z,7.25
2023-06-29T17:52:42.504Z,6.50
2023-06-29T17:55:10.600Z,6.03
2023-06-29T17:57:39.572Z,5.97
2023-06-29T18:00:08.983Z,6.65
2023-06-29T18:02:36.982Z,6.47
2023-06-29T18:05:05.225Z,6.53
2023-06-29T18:07:33.024Z,6.20
2023-06-29T18:10:05.525Z,6.28
2023-06-29T18:12:33.182Z,6.22
2023-06-29T18:15:02.269Z,6.43
2023-06-29T18:17:29.966Z,6.90
2023-06-29T18:19:57.667Z,6.65
2023-06-29T18:22:26.088Z,7.10
2023-06-29T18:24:53.931Z,6.15
2023-06-29T18:27:23.223Z,6.05
2023-06-29T18:29:50.868Z,6.45
2023-06-29T18:32:19.903Z,6.65
2023-06-29T18:34:47.838Z,6.20
2023-06-29T18:37:15.915Z,6.05
2023-06-29T18:39:43.694Z,6.03
2023-06-29T18:42:11.985Z,6.30
2023-06-29T18:44:41.438Z,6.35
2023-06-29T18:47:11.585Z,6.03
2023-06-29T18:49:51.557Z,6.57
2023-06-29T18:52:21.410Z,6.57
2023-06-29T18:54:49.258Z,6.80
2023-06-29T18:57:17.011Z,6.57
2023-06-29T18:59:44.716Z,6.97
2023-06-29T19:02:12.412Z,6.40
2023-06-29T19:04:41.830Z,6.22
2023-06-29T19:07:10.666Z,6.63
2023-06-29T19:09:38.383Z,6.90
2023-06-29T19:12:06.798Z,5.82
2023-06-29T19:14:34.433Z,6.72
2023-06-29T19:17:02.536Z,6.13
2023-06-29T19:19:30.229Z,6.38
2023-06-29T19:21:59.192Z,5.88
2023-06-29T19:24:26.926Z,6.65
2023-06-29T19:26:54.667Z,5.80
2023-06-29T19:29:22.348Z,6.00
2023-06-29T19:31:49.989Z,6.07
2023-06-29T19:34:17.721Z,6.07
2023-06-29T19:36:45.364Z,6.13
2023-06-29T19:39:14.569Z,6.10
2023-06-29T19:41:42.188Z,5.80
2023-06-29T19:44:09.933Z,6.07
2023-06-29T19:46:37.664Z,6.97
2023-06-29T19:49:05.431Z,6.40
2023-06-29T19:51:35.010Z,5.97
2023-06-29T19:54:02.786Z,6.80
2023-06-29T19:56:31.916Z,6.10
2023-06-29T19:59:03.106Z,5.87
2023-06-29T20:01:30.681Z,6.13
2023-06-29T20:03:58.343Z,6.57
2023-06-29T20:06:26.068Z,7.03
2023-06-29T20:08:53.812Z,5.90
2023-06-29T20:11:21.464Z,6.73
2023-06-29T20:13:50.589Z,6.10
2023-06-29T20:16:18.480Z,6.43
2023-06-29T20:18:46.435Z,6.70
2023-06-29T20:21:14.929Z,6.27
2023-06-29T20:23:42.512Z,6.53
2023-06-29T20:26:10.279Z,6.63
2023-06-29T20:28:37.882Z,6.83
2023-06-29T20:31:06.878Z,6.50
2023-06-29T20:33:34.610Z,6.23
2023-06-29T20:36:05.485Z,6.43
2023-06-29T20:38:33.409Z,6.57
2023-06-29T20:41:00.999Z,7.27
2023-06-29T20:43:28.652Z,6.47
2023-06-29T20:45:57.497Z,6.20
2023-06-29T20:48:26.530Z,5.77
2023-06-29T20:51:03.737Z,6.60
2023-06-29T20:53:39.394Z,6.30
2023-06-29T20:56:07.080Z,7.30
2023-06-29T20:58:35.884Z,6.23
2023-06-29T21:01:06.658Z,6.20
2023-06-29T21:03:35.891Z,6.53
2023-06-29T21:06:03.577Z,6.67
2023-06-29T21:08:31.249Z,6.27
2023-06-29T21:10:58.983Z,6.93
2023-06-29T21:13:27.141Z,6.23
2023-06-29T21:15:55.176Z,6.43
2023-06-29T21:18:23.913Z,6.67
2023-06-29T21:20:53.626Z,6.50
2023-06-29T21:23:21.697Z,5.93
2023-06-29T21:25:49.766Z,6.47
2023-06-29T21:28:17.959Z,6.47
2023-06-29T21:30:46.367Z,6.73
2023-06-29T21:33:15.268Z,6.80
2023-06-29T21:35:44.292Z,6.67
2023-06-29T21:38:14.355Z,6.67
2023-06-29T21:40:42.097Z,6.17
2023-06-29T21:43:09.876Z,5.97
2023-06-29T21:45:37.593Z,6.30
2023-06-29T21:48:06.234Z,5.80
2023-06-29T21:50:34.774Z,6.17
2023-06-29T21:53:03.234Z,6.47
2023-06-29T21:55:32.462Z,6.23
2023-06-29T21:58:00.156Z,6.10
2023-06-29T22:00:28.001Z,7.23
2023-06-29T22:02:56.722Z,6.17
2023-06-29T22:05:24.925Z,5.93
2023-06-29T22:07:52.601Z,6.20
2023-06-29T22:10:20.783Z,6.13
2023-06-29T22:12:49.886Z,5.73
2023-06-29T22:15:18.750Z,5.50
2023-06-29T22:17:50.224Z,6.60
2023-06-29T22:20:23.441Z,6.10
2023-06-29T22:22:51.803Z,6.27
2023-06-29T22:25:19.439Z,6.37
2023-06-29T22:27:49.252Z,6.43
2023-06-29T22:30:17.141Z,6.07
2023-06-29T22:32:52.098Z,6.33
2023-06-29T22:35:20.571Z,6.40
2023-06-29T22:37:48.463Z,6.20
2023-06-29T22:40:16.362Z,6.23
2023-06-29T22:42:44.098Z,7.07
2023-06-29T22:45:13.889Z,6.13
2023-06-29T22:47:41.776Z,6.90
2023-06-29T22:50:10.001Z,6.87
2023-06-29T22:52:37.826Z,6.87
2023-06-29T22:55:06.143Z,6.40
2023-06-29T22:57:34.025Z,6.20
2023-06-29T23:00:01.681Z,5.83
2023-06-29T23:02:30.991Z,6.03
2023-06-29T23:04:58.696Z,6.70
2023-06-29T23:07:26.485Z,6.17
2023-06-29T23:09:54.181Z,6.57
2023-06-29T23:12:22.847Z,6.07
2023-06-29T23:14:51.701Z,6.07
2023-06-29T23:17:23.151Z,6.40
2023-06-29T23:19:52.274Z,6.30
2023-06-29T23:22:22.109Z,5.97
2023-06-29T23:24:54.089Z,6.67
2023-06-29T23:27:22.118Z,6.63
2023-06-29T23:29:49.704Z,6.43
2023-06-29T23:32:17.404Z,7.07
2023-06-29T23:34:45.030Z,6.83
2023-06-29T23:37:14.091Z,7.13
2023-06-29T23:39:42.097Z,7.40
2023-06-29T23:42:10.030Z,6.60
2023-06-29T23:44:41.518Z,6.93
2023-06-29T23:47:10.483Z,6.00
2023-06-29T23:49:38.407Z,5.70
2023-06-29T23:52:10.341Z,6.47
2023-06-29T23:54:41.516Z,6.17
2023-06-29T23:57:09.210Z,5.70
2023-06-29T23:59:36.917Z,6.00
